Data for 08/30/2007

Time Sea-Level Adjusted Pressure Absolute Pressure Temperature Relative Humidity Dew Point   
(mb) (inHg) (mb) (inHg) (C) (F) (%) (C) (F)
00:05 1023 30.21 852 25.16 17.6 63.7 32 0.8 33.4
00:10 1023 30.21 852 25.16 17.8 64 33 1.3 34.3
00:15 1023 30.21 852 25.16 17.3 63.1 33 1 33.8
00:20 1023 30.21 852 25.16 17.1 62.8 36 2.2 36
00:25 1023 30.21 852 25.16 17.3 63.1 34 1.6 34.8
00:30 1023 30.21 852 25.16 17.5 63.5 34 1.7 35
00:35 1023 30.21 852 25.16 17.3 63.2 35 1.8 35.2
00:40 1023 30.21 852 25.16 17.2 63 35 1.8 35.2
00:45 1023 30.21 852 25.16 17.5 63.4 36 2.2 35.9
00:50 1023 30.21 852 25.16 17.5 63.6 35 2.2 36
00:55 1023 30.21 852 25.16 17.3 63.1 35 1.6 34.9
01:00 1023 30.21 852 25.16 17.2 62.9 39 3.2 37.7
01:05 1023 30.21 852 25.16 17.6 63.7 34 1.6 34.8
01:10 1023 30.21 853 25.19 18.2 64.7 34 2 35.6
01:15 1023 30.21 853 25.19 18.3 64.9 33 2 35.5
01:20 1023 30.21 853 25.19 18.4 65.1 33 1.9 35.5
01:25 1023 30.21 852 25.16 18.1 64.5 34 2.2 36
01:30 1023 30.21 852 25.16 18.2 64.7 34 2.1 35.8
01:35 1023 30.21 852 25.16 17.5 63.5 35 2.1 35.8
01:40 1023 30.21 853 25.19 16.5 61.7 37 1.9 35.4
01:45 1023 30.21 853 25.19 16.1 61 39 2.4 36.3
01:50 1023 30.21 853 25.19 16.1 60.9 36 1.1 33.9
01:55 1023 30.21 853 25.19 16.1 61 36 1.1 33.9
02:00 1023 30.21 853 25.19 17 62.6 35 1.5 34.7
02:05 1023 30.21 853 25.19 16.4 61.5 36 1.2 34.2
02:10 1023 30.21 853 25.19 17.4 63.3 31 0.2 32.4
02:15 1023 30.21 853 25.19 16.9 62.3 38 2.4 36.4
02:20 1023 30.21 853 25.19 15.5 59.9 37 1 33.7
02:25 1023 30.21 853 25.19 15.8 60.4 43 3.3 37.9
02:30 1023 30.21 853 25.19 15.6 60 38 1.2 34.2
02:35 1024 30.24 853 25.19 15.9 60.6 35 0.6 33.1
02:40 1024 30.24 853 25.19 16.4 61.5 34 0.5 32.8
02:45 1024 30.24 853 25.19 16.8 62.3 33 0.6 33.1
02:50 1023 30.21 853 25.19 16.4 61.5 35 0.9 33.6
02:55 1023 30.21 853 25.19 16.3 61.3 35 0.9 33.7
03:00 1023 30.21 853 25.19 16 60.8 35 0.7 33.2
03:05 1023 30.21 853 25.19 15.8 60.5 35 0.7 33.2
03:10 1023 30.21 853 25.19 15.7 60.2 35 0.4 32.7
03:15 1023 30.21 853 25.19 15.7 60.3 36 0.7 33.2
03:20 1023 30.21 853 25.19 15.5 60 35 0.4 32.7
03:25 1023 30.21 853 25.19 15.5 59.8 35 0.3 32.6
03:30 1023 30.21 853 25.19 15.5 60 35 0.1 32.2
03:35 1024 30.24 853 25.19 15.8 60.4 34 0.2 32.4
03:40 1024 30.24 853 25.19 15.9 60.5 35 0.3 32.6
03:45 1023 30.21 853 25.19 15.5 60 35 0.2 32.4
03:50 1024 30.24 853 25.19 15.4 59.6 36 0.3 32.5
03:55 1024 30.24 853 25.19 15.2 59.3 35 0.1 32.1
04:00 1024 30.24 853 25.19 15.7 60.3 42 3.1 37.6
04:05 1024 30.24 853 25.19 15.7 60.3 37 1 33.8
04:10 1024 30.24 853 25.19 15.1 59.1 39 1.4 34.5
04:15 1024 30.24 853 25.19 15.4 59.7 34 -0.5 31.2
04:20 1024 30.24 853 25.19 15.9 60.6 35 0.5 32.9
04:25 1024 30.24 853 25.19 15.8 60.5 35 0.5 32.9
04:30 1024 30.24 853 25.19 15.3 59.5 39 1.5 34.6
04:35 1024 30.24 853 25.19 14.4 58 41 1.3 34.4
04:40 1024 30.24 853 25.19 14.6 58.3 38 0.7 33.3
04:45 1023 30.21 853 25.19 15.4 59.7 36 0.4 32.7
04:50 1023 30.21 853 25.19 15.3 59.5 38 1.2 34.1
04:55 1024 30.24 853 25.19 15 59 37 0.4 32.8
05:00 1024 30.24 853 25.19 14.6 58.2 38 0.5 33
05:05 1024 30.24 853 25.19 14.5 58.1 38 0.4 32.7
05:10 1023 30.21 853 25.19 14.7 58.4 38 0.6 33.1
05:15 1023 30.21 853 25.19 14.5 58.1 38 0.5 33
05:20 1023 30.21 853 25.19 14.5 58.1 37 0.1 32.2
05:25 1023 30.21 853 25.19 15 59 34 -0.7 30.7
05:30 1024 30.24 853 25.19 15.6 60.1 34 -0.3 31.5
05:35 1024 30.24 853 25.19 15.1 59.3 36 0.3 32.6
05:40 1024 30.24 853 25.19 14.5 58 38 0.4 32.8
05:45 1023 30.21 853 25.19 14.4 58 37 -0.1 31.8
05:50 1024 30.24 853 25.19 14.5 58.1 38 0.3 32.6
05:55 1024 30.24 853 25.19 14.5 58.2 36 -0.1 31.8
06:00 1024 30.24 853 25.19 14.8 58.6 36 -0.2 31.7
06:05 1023 30.21 853 25.19 15.1 59.2 34 -0.4 31.2
06:10 1023 30.21 853 25.19 15.5 59.8 34 -0.3 31.5
06:15 1024 30.24 853 25.19 15.3 59.5 35 0 32
06:20 1024 30.24 853 25.19 14.9 58.8 37 0.5 32.9
06:25 1024 30.24 853 25.19 15 59 34 -0.8 30.6
06:30 1024 30.24 853 25.19 15.2 59.4 35 -0.2 31.7
06:35 1024 30.24 853 25.19 15.5 60 33 -0.7 30.7
06:40 1024 30.24 853 25.19 15.7 60.2 33 -0.6 31
06:45 1024 30.24 853 25.19 15.3 59.6 34 -0.5 31.2
06:50 1024 30.24 853 25.19 15 59 34 -0.7 30.8
06:55 1024 30.24 853 25.19 15.3 59.6 35 0 32
07:00 1024 30.24 853 25.19 14.4 58 40 1.1 33.9
07:05 1024 30.24 853 25.19 13.2 55.7 43 1 33.8
07:10 1024 30.24 853 25.19 12.9 55.2 41 0.2 32.3
07:15 1024 30.24 853 25.19 14.6 58.3 32 -1.8 28.8
07:20 1024 30.24 853 25.19 15.3 59.6 35 0 32
07:25 1024 30.24 853 25.19 14.5 58.1 38 0.4 32.7
07:30 1024 30.24 853 25.19 14.6 58.3 35 -0.7 30.7
07:35 1024 30.24 853 25.19 15.1 59.2 35 -0 32
07:40 1024 30.24 853 25.19 15.2 59.4 35 -0.1 31.8
07:45 1024 30.24 853 25.19 15.4 59.6 37 0.7 33.2
07:50 1024 30.24 853 25.19 15.7 60.2 34 0 32.1
07:55 1024 30.24 853 25.19 16.1 61 37 1.4 34.5
08:00 1024 30.24 853 25.19 16.4 61.5 38 2.2 35.9
08:05 1024 30.24 853 25.19 15.4 59.7 41 2.2 36
08:10 1024 30.24 853 25.19 15.2 59.4 42 2.3 36.2
08:15 1024 30.24 853 25.19 15 58.9 44 3 37.5
08:20 1024 30.24 853 25.19 15 59 40 1.4 34.6
08:25 1024 30.24 853 25.19 15.3 59.5 40 1.8 35.3
08:30 1024 30.24 853 25.19 15.7 60.3 39 2 35.6
08:35 1024 30.24 853 25.19 15.8 60.4 41 2.7 36.9
08:40 1024 30.24 853 25.19 16.1 61 39 2.1 35.8
08:45 1024 30.24 853 25.19 16.7 62 39 2.8 37
08:50 1024 30.24 853 25.19 17.5 63.4 36 2.5 36.5
08:55 1024 30.24 853 25.19 18.1 64.6 35 2.4 36.3
09:00 1024 30.24 853 25.19 18.8 65.8 31 1.5 34.7
09:05 1024 30.24 853 25.19 19 66.2 31 1.4 34.6
09:10 1024 30.24 853 25.19 19.2 66.6 31 1.7 35
09:15 1024 30.24 853 25.19 19.4 66.9 30 1.4 34.6
09:20 1024 30.24 853 25.19 19.7 67.4 30 1.9 35.5
09:25 1024 30.24 853 25.19 19.8 67.7 29 1.3 34.3
09:30 1024 30.24 853 25.19 20.5 68.9 29 1.9 35.5
09:35 1024 30.24 853 25.19 21 69.7 28 1.7 35.1
09:40 1024 30.24 853 25.19 21.3 70.3 28 2.3 36.1
09:45 1024 30.24 853 25.19 21.6 70.9 27 2 35.5
09:50 1024 30.24 853 25.19 22 71.5 26 1.9 35.5
09:55 1024 30.24 853 25.19 22.1 71.7 27 2.4 36.3
10:00 1024 30.24 853 25.19 22.2 72 26 1.8 35.2
10:05 1024 30.24 853 25.19 22.3 72.1 26 2 35.6
10:10 1024 30.24 853 25.19 22.4 72.4 25 1.7 35
10:15 1024 30.24 853 25.19 23 73.4 24 1.6 34.8
10:20 1024 30.24 853 25.19 23.5 74.2 24 2.2 36
10:25 1024 30.24 853 25.19 23.1 73.6 25 2.2 35.9
10:30 1023 30.21 853 25.19 23.3 74 25 2.4 36.4
10:35 1023 30.21 853 25.19 23.1 73.5 27 3 37.5
10:40 1023 30.21 853 25.19 21.9 71.5 27 2.4 36.3
10:45 1023 30.21 853 25.19 21.7 71.1 27 2.3 36.1
10:50 1023 30.21 853 25.19 21.9 71.4 27 2 35.6
10:55 1023 30.21 853 25.19 22.2 71.9 26 2 35.6
11:00 1023 30.21 853 25.19 22.8 73 26 2.5 36.5
11:05 1023 30.21 853 25.19 23.6 74.4 24 2.1 35.8
11:10 1023 30.21 853 25.19 23 73.4 25 1.9 35.4
11:15 1023 30.21 853 25.19 22.6 72.6 26 2.4 36.4
11:20 1023 30.21 852 25.16 23.4 74.2 25 2.3 36.1
11:25 1023 30.21 852 25.16 24.6 76.2 22 2 35.6
11:30 1023 30.21 852 25.16 24.7 76.5 22 2.1 35.8
11:35 1023 30.21 852 25.16 24.5 76.2 22 1.4 34.6
11:40 1023 30.21 852 25.16 25.4 77.7 20 1.1 34
11:45 1023 30.21 852 25.16 25.5 77.9 21 1.7 35
11:50 1023 30.21 852 25.16 25.6 78 21 2 35.7
11:55 1023 30.21 852 25.16 25.8 78.4 19 1 33.8
12:00 1023 30.21 852 25.16 26.3 79.4 18 0.5 32.9
12:05 1023 30.21 852 25.16 26.6 79.8 19 1.1 34.1
12:10 1023 30.21 852 25.16 26.8 80.3 19 1.4 34.6
12:15 1023 30.21 852 25.16 27 80.7 19 2.1 35.8
12:20 1023 30.21 852 25.16 25.7 78.2 21 2.2 35.9
12:25 1023 30.21 852 25.16 25.6 78 21 1.8 35.2
12:30 1023 30.21 852 25.16 26 78.8 21 2.4 36.2
12:35 1022 30.18 852 25.16 26.6 79.9 20 2 35.5
12:40 1022 30.18 852 25.16 26.6 79.9 21 2.5 36.5
12:45 1022 30.18 852 25.16 26.6 79.9 20 2 35.6
12:50 1022 30.18 852 25.16 27.1 80.8 19 1.9 35.5
12:55 1022 30.18 852 25.16 27.6 81.7 19 2.1 35.7
13:00 1022 30.18 851 25.13 27.5 81.6 19 2.5 36.4
13:05 1022 30.18 851 25.13 28.4 83 17 1.5 34.7
13:10 1022 30.18 851 25.13 28.7 83.7 16 1.1 33.9
13:15 1022 30.18 851 25.13 29.1 84.4 18 2.5 36.5
13:20 1022 30.18 851 25.13 29.5 85.1 17 1.8 35.3
13:25 1022 30.18 851 25.13 29.4 84.8 17 1.8 35.3
13:30 1022 30.18 851 25.13 29.3 84.7 17 2.1 35.7
13:35 1022 30.18 851 25.13 29.4 85 16 1.5 34.6
13:40 1022 30.18 851 25.13 29.7 85.5 16 1.3 34.3
13:45 1022 30.18 851 25.13 29.9 85.8 16 1.6 34.9
13:50 1022 30.18 851 25.13 30.2 86.4 16 1.6 35
13:55 1022 30.18 851 25.13 30 86 16 1.5 34.7
14:00 1022 30.18 851 25.13 30.2 86.4 15 1.1 34
14:05 1022 30.18 851 25.13 30.9 87.6 16 2.3 36.2
14:10 1021 30.15 851 25.13 31.6 88.8 14 0.9 33.7
14:15 1021 30.15 851 25.13 31.9 89.3 14 1.6 34.9
14:20 1021 30.15 851 25.13 31.4 88.6 14 1.4 34.6
14:25 1021 30.15 850 25.1 31 87.8 15 1.8 35.2
14:30 1021 30.15 850 25.1 31.2 88.2 14 1 33.8
14:35 1021 30.15 850 25.1 31.8 89.3 13 0.6 33.1
14:40 1021 30.15 850 25.1 32.4 90.3 13 1.1 33.9
14:45 1021 30.15 850 25.1 31.6 88.9 14 0.9 33.6
14:50 1021 30.15 850 25.1 31.1 88 14 0.7 33.3
14:55 1021 30.15 850 25.1 31.8 89.3 13 0.1 32.2
15:00 1021 30.15 850 25.1 31 87.8 13 -0.2 31.7
15:05 1021 30.15 850 25.1 31.5 88.7 14 0.8 33.5
15:10 1021 30.15 850 25.1 32.2 90 13 0.5 32.8
15:15 1021 30.15 850 25.1 32.6 90.8 13 0.6 33.1
15:20 1021 30.15 850 25.1 33.3 91.9 12 0.5 32.8
15:25 1021 30.15 850 25.1 33.6 92.4 12 0.8 33.5
15:30 1021 30.15 850 25.1 32.8 91.1 12 0.6 33.2
15:35 1020 30.12 850 25.1 32.4 90.2 13 0.4 32.8
15:40 1020 30.12 850 25.1 31.3 88.3 13 -0.4 31.3
15:45 1020 30.12 850 25.1 30.9 87.7 12 -1 30.3
15:50 1020 30.12 849 25.07 31.6 88.9 13 -0.1 31.8
15:55 1020 30.12 849 25.07 32.2 90 13 1 33.8
16:00 1020 30.12 849 25.07 32.3 90.2 13 1.3 34.3
16:05 1020 30.12 849 25.07 32.4 90.3 12 0.2 32.4
16:10 1020 30.12 849 25.07 32.6 90.7 13 1.3 34.3
16:15 1020 30.12 849 25.07 32.7 90.8 12 -0.2 31.6
16:20 1020 30.12 849 25.07 32.9 91.2 11 -0.5 31.1
16:25 1020 30.12 849 25.07 32.5 90.5 12 -0.5 31.1
16:30 1020 30.12 849 25.07 33.2 91.8 10 -1.4 29.4
16:35 1020 30.12 849 25.07 33.1 91.5 11 -0.9 30.4
16:40 1020 30.12 849 25.07 33.7 92.6 11 -0.3 31.5
16:45 1020 30.12 849 25.07 33.6 92.6 11 -0.7 30.7
16:50 1020 30.12 849 25.07 33.6 92.4 11 -0.3 31.4
16:55 1020 30.12 849 25.07 34 93.1 11 -0.8 30.6
17:00 1020 30.12 849 25.07 34.1 93.4 10 -1 30.1
17:05 1020 30.12 849 25.07 33.3 91.9 11 -1 30.2
17:10 1020 30.12 849 25.07 32.6 90.6 12 -0.7 30.8
17:15 1020 30.12 849 25.07 32.5 90.4 13 0.8 33.5
17:20 1020 30.12 849 25.07 32.1 89.8 13 0.7 33.2
17:25 1020 30.12 849 25.07 31.8 89.2 13 0.7 33.2
17:30 1020 30.12 849 25.07 31.6 88.9 12 -1.1 30
17:35 1020 30.12 849 25.07 31.9 89.4 13 0.6 33.1
17:40 1020 30.12 849 25.07 32.3 90.2 12 -0.6 30.9
17:45 1020 30.12 849 25.07 32.8 91 13 0.6 33.2
17:50 1020 30.12 849 25.07 32.4 90.4 12 0.1 32.1
17:55 1020 30.12 849 25.07 32.8 91.1 12 0.4 32.7
18:00 1020 30.12 849 25.07 32.3 90.2 13 0.5 33
18:05 1020 30.12 849 25.07 32 89.5 14 1.1 34
18:10 1020 30.12 849 25.07 31.6 88.8 13 0.6 33
18:15 1020 30.12 849 25.07 31.8 89.3 13 0.6 33.1
18:20 1020 30.12 849 25.07 32.3 90.1 14 1.5 34.7
18:25 1020 30.12 849 25.07 32 89.5 13 1 33.8
18:30 1020 30.12 849 25.07 31.6 89 13 0.6 33
18:35 1020 30.12 849 25.07 31.3 88.3 13 0.1 32.2
18:40 1020 30.12 849 25.07 31.1 88.1 15 1.6 34.9
18:45 1020 30.12 849 25.07 31.1 87.9 15 2.1 35.7
18:50 1020 30.12 849 25.07 30.7 87.2 16 1.9 35.5
18:55 1020 30.12 849 25.07 30.5 86.9 15 1.6 34.9
19:00 1020 30.12 849 25.07 30.4 86.6 15 1.3 34.3
19:05 1020 30.12 849 25.07 30.4 86.7 14 0.3 32.5
19:10 1020 30.12 849 25.07 30.4 86.7 14 0.4 32.7
19:15 1020 30.12 849 25.07 30.2 86.4 14 0.3 32.6
19:20 1020 30.12 849 25.07 30.1 86.2 15 0.7 33.2
19:25 1020 30.12 849 25.07 30 86 16 1.6 35
19:30 1020 30.12 849 25.07 29.7 85.5 16 1.6 34.9
19:35 1020 30.12 849 25.07 29.4 84.9 16 1.2 34.1
19:40 1020 30.12 849 25.07 29 84.1 21 4.8 40.7
19:45 1020 30.12 849 25.07 27.9 82.1 23 5.4 41.7
19:50 1020 30.12 849 25.07 27.1 80.9 24 4.9 40.9
19:55 1020 30.12 849 25.07 27 80.5 23 4.1 39.4
20:00 1020 30.12 849 25.07 26.7 80.1 23 4.3 39.7
20:05 1020 30.12 849 25.07 26.3 79.3 24 4.6 40.3
20:10 1020 30.12 849 25.07 25.9 78.7 24 4.1 39.3
20:15 1020 30.12 849 25.07 25.5 78 26 4.7 40.4
20:20 1020 30.12 849 25.07 25.2 77.3 26 4.6 40.3
20:25 1020 30.12 849 25.07 25 77 24 3.5 38.4
20:30 1020 30.12 849 25.07 25 77 24 3.4 38.1
20:35 1020 30.12 849 25.07 25 77 24 3.4 38.1
20:40 1020 30.12 849 25.07 25.1 77.2 24 3.2 37.7
20:45 1020 30.12 849 25.07 25.2 77.3 25 4.2 39.5
20:50 1020 30.12 849 25.07 24.9 76.7 26 4.1 39.3
20:55 1020 30.12 849 25.07 24.5 76.2 25 3.3 38
21:00 1020 30.12 849 25.07 24.6 76.2 27 4.5 40.1
21:05 1020 30.12 849 25.07 24.1 75.4 26 3.6 38.4
21:10 1020 30.12 849 25.07 24 75.2 25 3.2 37.8
21:15 1020 30.12 849 25.07 24.4 75.8 25 3.3 37.9
21:20 1020 30.12 849 25.07 24.1 75.4 25 3 37.4
21:25 1020 30.12 849 25.07 24.2 75.6 29 5.2 41.4
21:30 1020 30.12 849 25.07 23.6 74.5 27 3.6 38.6
21:35 1020 30.12 849 25.07 23.9 75.1 28 4.7 40.5
21:40 1020 30.12 849 25.07 24.2 75.5 26 3.4 38.2
21:45 1020 30.12 849 25.07 23.7 74.6 26 3.4 38.1
21:50 1020 30.12 849 25.07 23.4 74.1 27 3.5 38.2
21:55 1020 30.12 849 25.07 22.9 73.2 28 3.8 38.9
22:00 1020 30.12 849 25.07 22.7 72.8 28 3.7 38.6
22:05 1020 30.12 849 25.07 22.8 73.1 27 2.9 37.3
22:10 1020 30.12 849 25.07 23 73.4 27 3 37.5
22:15 1020 30.12 849 25.07 23.1 73.5 27 3.1 37.5
22:20 1020 30.12 849 25.07 23.2 73.8 26 2.9 37.2
22:25 1020 30.12 849 25.07 23.2 73.8 26 3 37.4
22:30 1020 30.12 849 25.07 23.1 73.5 27 3.5 38.2
22:35 1020 30.12 849 25.07 23 73.4 27 3 37.4
22:40 1020 30.12 849 25.07 22.8 73.1 27 3 37.4
22:45 1020 30.12 849 25.07 22.8 73 27 3.1 37.6
22:50 1020 30.12 849 25.07 22.5 72.4 28 3.4 38.2
22:55 1020 30.12 849 25.07 22.4 72.4 27 2.8 37.1
23:00 1020 30.12 849 25.07 22.9 73.2 27 2.9 37.1
23:05 1020 30.12 849 25.07 23.1 73.6 26 2.5 36.5
23:10 1020 30.12 849 25.07 23.1 73.5 26 2.9 37.3
23:15 1020 30.12 849 25.07 23 73.5 27 3.1 37.6
23:20 1020 30.12 849 25.07 23.2 73.7 32 5.6 42
23:25 1020 30.12 849 25.07 23.3 73.9 26 2.7 36.9
23:30 1020 30.12 849 25.07 23 73.3 26 2.8 37.1
23:35 1020 30.12 849 25.07 22.7 72.9 27 2.9 37.3
23:40 1020 30.12 849 25.07 22.4 72.3 28 3.1 37.5
23:45 1020 30.12 849 25.07 21.9 71.3 31 4 39.1
23:50 1020 30.12 849 25.07 21.1 69.9 31 3.5 38.2
23:55 1020 30.12 849 25.07 21 69.9 30 3.1 37.5
24:00 1020 30.12 849 25.07 21.3 70.3 32 4.1 39.5